Time;durP1;ratioP1;P1;durP2;ratioP2;P2;SDS_P1;SDS_P2;PMS_P1;PMS_P2;Temp;Humidity;BMP_temperature;BMP_pressure;BME280_temperature;BME280_humidity;BME280_pressure;Samples;Min_cycle;Max_cycle;Signal;HPM_P1;HPM_P2
2022/07/14 00:01:36;;;;;;;15.38;8.15;;;;;;;18.88;61.91;99202.41;5011387;28;20030;-62
2022/07/14 00:04:01;;;;;;;13.63;8.13;;;;;;;18.96;61.65;99196.00;5028147;28;20033;-60
2022/07/14 00:06:27;;;;;;;16.27;8.27;;;;;;;19.02;61.68;99196.06;5032385;28;20060;-62
2022/07/14 00:08:52;;;;;;;19.83;8.50;;;;;;;19.18;61.06;99205.00;5032154;28;20029;-60
2022/07/14 00:11:18;;;;;;;20.80;8.75;;;;;;;19.24;61.07;99200.66;5030568;28;20107;-59
2022/07/14 00:13:43;;;;;;;17.45;9.48;;;;;;;19.37;60.97;99206.19;5030665;28;20044;-61
2022/07/14 00:16:09;;;;;;;19.80;8.93;;;;;;;19.49;60.60;99203.75;5031151;28;20036;-60
2022/07/14 00:18:37;;;;;;;22.52;9.00;;;;;;;19.51;60.59;99210.69;5032142;28;20036;-59
2022/07/14 00:21:02;;;;;;;21.25;8.35;;;;;;;19.53;60.67;99210.47;5031939;28;20167;-60
2022/07/14 00:23:28;;;;;;;17.73;8.88;;;;;;;19.49;60.68;99206.47;5030589;28;20108;-61
2022/07/14 00:25:53;;;;;;;16.25;8.98;;;;;;;19.52;60.62;99200.66;5032253;28;20045;-60
2022/07/14 00:28:19;;;;;;;18.63;9.18;;;;;;;19.54;59.43;99198.59;5030802;28;20465;-60
2022/07/14 00:30:45;;;;;;;26.45;9.88;;;;;;;19.59;59.54;99193.41;5030674;28;20050;-61
2022/07/14 00:33:11;;;;;;;15.32;8.82;;;;;;;19.58;58.82;99191.75;5031152;28;20029;-60
2022/07/14 00:35:37;;;;;;;17.45;9.95;;;;;;;19.54;59.25;99184.19;5031938;28;20386;-59
2022/07/14 00:38:05;;;;;;;19.80;8.70;;;;;;;19.49;59.43;99174.75;5031483;28;20049;-60
2022/07/14 00:40:30;;;;;;;15.48;8.65;;;;;;;19.54;59.59;99178.75;5031477;28;20037;-60
2022/07/14 00:42:56;;;;;;;15.05;8.68;;;;;;;19.56;59.29;99174.81;5029402;28;20052;-59
2022/07/14 00:45:22;;;;;;;16.10;9.45;;;;;;;19.60;58.74;99177.94;5031778;28;20067;-60
2022/07/14 00:47:48;;;;;;;16.75;9.45;;;;;;;19.59;58.73;99179.84;5031764;28;20060;-56
2022/07/14 00:50:17;;;;;;;15.35;8.90;;;;;;;19.69;58.23;99176.78;5031095;28;20496;-59
2022/07/14 00:52:44;;;;;;;18.27;8.73;;;;;;;19.71;58.15;99181.97;5032035;28;20033;-62
2022/07/14 00:55:12;;;;;;;18.90;9.43;;;;;;;19.77;57.25;99173.03;5031767;28;20048;-60
2022/07/14 00:57:38;;;;;;;17.17;9.15;;;;;;;19.78;57.12;99175.56;5031668;28;20033;-58
2022/07/14 01:00:10;;;;;;;23.95;9.75;;;;;;;19.79;57.15;99163.66;5031354;28;20116;-60
2022/07/14 01:02:35;;;;;;;14.80;8.68;;;;;;;19.74;56.92;99163.44;5030374;28;20039;-59
2022/07/14 01:05:02;;;;;;;19.85;9.15;;;;;;;19.76;56.75;99164.06;5031317;28;20037;-58
2022/07/14 01:07:29;;;;;;;14.55;8.15;;;;;;;19.59;56.34;99125.53;5029838;28;20393;-57
2022/07/14 01:09:54;;;;;;;18.80;8.57;;;;;;;19.75;56.38;99145.22;5030147;28;20044;-59
2022/07/14 01:12:20;;;;;;;19.40;8.65;;;;;;;19.73;56.77;99155.47;5031034;28;20103;-59
2022/07/14 01:14:45;;;;;;;12.38;8.50;;;;;;;19.60;56.79;99140.78;5031202;28;20026;-59
2022/07/14 01:17:11;;;;;;;16.42;8.52;;;;;;;19.59;57.29;99141.81;5031483;28;20125;-60
2022/07/14 01:19:37;;;;;;;14.20;8.80;;;;;;;19.53;57.79;99134.47;5030907;28;20109;-60
2022/07/14 01:22:03;;;;;;;14.77;7.32;;;;;;;19.49;56.55;99130.47;5031011;28;20120;-60
2022/07/14 01:24:29;;;;;;;13.73;7.82;;;;;;;19.45;56.80;99123.75;5031055;28;20488;-58
2022/07/14 01:26:55;;;;;;;17.33;8.80;;;;;;;19.55;56.56;99131.56;5029176;28;20421;-59
2022/07/14 01:29:20;;;;;;;15.45;8.48;;;;;;;19.67;56.36;99135.41;5029324;28;20142;-58
2022/07/14 01:31:46;;;;;;;16.95;8.45;;;;;;;19.72;55.92;99142.94;5030821;28;20076;-58
2022/07/14 01:34:12;;;;;;;15.90;8.25;;;;;;;19.75;55.84;99140.66;5029584;28;20454;-58
2022/07/14 01:36:38;;;;;;;20.55;8.45;;;;;;;19.74;55.73;99138.97;5030758;28;20362;-57
2022/07/14 01:39:05;;;;;;;12.60;7.70;;;;;;;19.77;54.75;99143.16;5030693;28;20401;-58
2022/07/14 01:41:31;;;;;;;13.75;7.50;;;;;;;19.82;54.29;99128.97;5030577;28;20033;-57
2022/07/14 01:43:57;;;;;;;18.95;7.72;;;;;;;19.80;54.69;99126.47;5030173;28;20114;-58
2022/07/14 01:46:23;;;;;;;12.55;7.75;;;;;;;19.71;54.78;99108.66;5030849;28;20137;-59
2022/07/14 01:48:48;;;;;;;13.48;7.10;;;;;;;19.91;53.75;99134.06;5029427;28;20037;-60
2022/07/14 01:51:14;;;;;;;11.02;6.90;;;;;;;19.99;53.80;99137.66;5029718;28;20042;-60
2022/07/14 01:53:41;;;;;;;11.68;7.25;;;;;;;19.99;54.16;99129.50;5030650;28;20076;-59
2022/07/14 01:56:08;;;;;;;14.73;7.40;;;;;;;19.88;54.28;99115.44;5034199;28;20393;-58
2022/07/14 01:58:34;;;;;;;14.48;8.00;;;;;;;20.00;54.13;99126.59;5033788;28;20025;-57
2022/07/14 02:03:45;;;;;;;13.90;7.43;;;;;;;20.11;54.00;99127.03;5034648;28;20032;-59
2022/07/14 02:06:13;;;;;;;10.20;7.47;;;;;;;19.94;53.94;99100.25;5034131;28;20063;-60
2022/07/14 02:08:39;;;;;;;13.18;6.82;;;;;;;20.21;52.87;99128.31;5034244;28;20508;-58
2022/07/14 02:13:49;;;;;;;11.95;7.45;;;;;;;20.46;53.31;99119.59;5033970;28;20469;-58
2022/07/14 02:16:15;;;;;;;11.27;7.10;;;;;;;20.65;51.53;99122.56;5033840;28;20076;-59
2022/07/14 02:18:41;;;;;;;11.27;6.93;;;;;;;20.70;50.92;99106.47;5049457;28;20033;-60
2022/07/14 02:21:06;;;;;;;10.68;6.75;;;;;;;21.04;49.68;99131.84;5033742;28;20028;-58
2022/07/14 02:23:32;;;;;;;10.00;6.18;;;;;;;21.20;48.94;99137.91;5034117;28;20037;-59
2022/07/14 02:25:58;;;;;;;10.30;5.90;;;;;;;21.25;49.07;99132.69;5034004;28;20120;-58
2022/07/14 02:28:23;;;;;;;7.75;6.38;;;;;;;21.27;49.21;99152.34;5034113;28;20469;-59
2022/07/14 02:30:49;;;;;;;14.27;6.32;;;;;;;21.35;49.20;99176.63;5034234;28;20021;-61
2022/07/14 02:33:14;;;;;;;9.02;5.75;;;;;;;21.39;48.90;99192.53;5034058;28;20072;-59
2022/07/14 02:35:40;;;;;;;11.93;5.80;;;;;;;21.33;48.54;99189.63;5033015;28;20037;-60
2022/07/14 02:38:05;;;;;;;10.55;5.82;;;;;;;21.33;48.02;99184.19;5033894;28;20042;-59
2022/07/14 02:40:32;;;;;;;10.48;6.05;;;;;;;21.27;47.76;99179.59;5032446;28;20525;-61
2022/07/14 02:42:57;;;;;;;11.40;5.30;;;;;;;21.26;47.06;99198.84;5033256;28;20116;-59
2022/07/14 02:45:23;;;;;;;9.68;5.88;;;;;;;21.21;47.48;99194.00;5032634;28;20028;-60
2022/07/14 02:47:48;;;;;;;12.27;4.88;;;;;;;21.18;46.98;99189.84;5033888;28;20029;-59
2022/07/14 02:50:14;;;;;;;7.40;4.57;;;;;;;21.14;46.70;99196.75;5033347;28;20037;-59
2022/07/14 02:52:39;;;;;;;8.23;4.45;;;;;;;20.94;46.01;99166.78;5033152;28;20091;-59
2022/07/14 02:55:06;;;;;;;6.78;3.97;;;;;;;21.06;45.77;99199.66;5033600;28;20065;-58
2022/07/14 02:57:31;;;;;;;6.18;4.05;;;;;;;21.02;45.02;99204.69;5033178;28;20033;-60
2022/07/14 02:59:57;;;;;;;9.95;4.05;;;;;;;20.97;45.28;99198.19;5033395;28;20108;-59
2022/07/14 03:02:22;;;;;;;9.05;3.80;;;;;;;20.91;44.80;99195.25;5032930;28;20061;-62
2022/07/14 03:04:48;;;;;;;7.78;3.35;;;;;;;20.99;44.28;99196.09;5032485;28;20374;-59
2022/07/14 03:07:13;;;;;;;7.13;3.40;;;;;;;20.93;43.92;99185.00;5032038;28;20064;-60
2022/07/14 03:09:39;;;;;;;7.43;3.20;;;;;;;21.00;44.12;99190.47;5033222;28;20536;-60
2022/07/14 03:12:04;;;;;;;7.32;3.08;;;;;;;21.01;43.21;99181.25;5028136;28;20037;-57
2022/07/14 03:14:30;;;;;;;5.93;2.92;;;;;;;20.92;43.40;99160.72;5020086;28;20029;-58
2022/07/14 03:16:55;;;;;;;5.00;3.03;;;;;;;21.01;43.34;99173.09;5033211;28;20072;-60
2022/07/14 03:19:21;;;;;;;5.60;3.00;;;;;;;21.05;43.36;99166.19;5033246;28;20029;-62
2022/07/14 03:21:47;;;;;;;2.85;2.40;;;;;;;20.99;43.34;99144.41;5032981;28;20029;-60
2022/07/14 03:24:13;;;;;;;4.35;2.60;;;;;;;20.98;44.17;99151.75;5032367;28;20048;-60
2022/07/14 03:26:39;;;;;;;3.42;2.42;;;;;;;20.88;44.15;99163.03;5031518;28;20037;-62
2022/07/14 03:29:05;;;;;;;6.05;2.35;;;;;;;20.69;45.42;99140.16;5032985;28;20036;-60
2022/07/14 03:31:31;;;;;;;3.03;2.22;;;;;;;20.85;45.82;99165.31;5031257;28;20108;-61
2022/07/14 03:33:57;;;;;;;3.50;2.80;;;;;;;20.69;46.22;99151.03;5032247;28;20041;-60
2022/07/14 03:36:22;;;;;;;4.38;2.30;;;;;;;20.78;45.36;99171.56;5030846;28;20052;-62
2022/07/14 03:38:48;;;;;;;2.60;2.20;;;;;;;20.74;46.46;99178.47;5048200;28;20034;-61
2022/07/14 03:41:14;;;;;;;5.90;2.72;;;;;;;20.71;46.44;99169.88;5031505;28;20043;-60
2022/07/14 03:43:39;;;;;;;2.63;2.35;;;;;;;20.67;47.10;99163.19;5031462;28;20404;-62
2022/07/14 03:46:06;;;;;;;4.63;2.63;;;;;;;20.64;47.83;99153.53;5032041;28;20075;-60
2022/07/14 03:48:33;;;;;;;4.00;2.95;;;;;;;20.54;48.36;99140.34;5031214;28;20029;-61
2022/07/14 03:50:59;;;;;;;6.72;2.85;;;;;;;20.43;49.43;99128.19;5032309;28;20104;-61
2022/07/14 03:53:24;;;;;;;5.82;2.50;;;;;;;20.34;49.70;99108.50;5031094;28;20120;-62
2022/07/14 03:55:50;;;;;;;4.75;2.28;;;;;;;20.26;49.88;99105.16;5031457;28;20060;-60
2022/07/14 03:58:15;;;;;;;7.32;2.97;;;;;;;20.08;49.75;99076.66;5032155;28;20458;-60
2022/07/14 04:00:40;;;;;;;2.75;2.25;;;;;;;20.18;50.27;99089.88;5031817;28;20172;-61
2022/07/14 04:03:06;;;;;;;3.03;2.38;;;;;;;20.26;50.56;99094.28;5030259;28;20048;-61
2022/07/14 04:05:32;;;;;;;6.95;2.95;;;;;;;20.15;50.30;99063.94;5032261;28;20039;-60
2022/07/14 04:07:57;;;;;;;3.47;2.78;;;;;;;20.28;50.16;99070.44;5031694;28;20029;-60
2022/07/14 04:10:23;;;;;;;8.88;2.60;;;;;;;20.43;49.97;99079.25;5032355;28;20048;-61
2022/07/14 04:12:49;;;;;;;3.13;2.50;;;;;;;20.57;49.65;99069.22;5032445;28;20041;-60
2022/07/14 04:15:14;;;;;;;5.57;2.72;;;;;;;20.75;49.19;99076.78;5030601;28;20424;-59
2022/07/14 04:17:40;;;;;;;6.43;2.67;;;;;;;20.95;48.12;99073.22;5031678;28;20056;-61
2022/07/14 04:20:06;;;;;;;5.35;2.65;;;;;;;21.15;47.54;99072.38;5030631;28;20036;-60
2022/07/14 04:22:32;;;;;;;4.60;2.70;;;;;;;21.39;46.88;99076.31;5031628;28;20064;-60
2022/07/14 04:24:57;;;;;;;5.97;2.60;;;;;;;21.72;45.98;99069.13;5031832;28;20033;-62
2022/07/14 04:27:23;;;;;;;7.28;2.33;;;;;;;22.02;44.87;99069.38;5031397;28;20033;-61
2022/07/14 04:29:48;;;;;;;6.60;2.50;;;;;;;22.32;43.98;99067.97;5031471;28;20040;-60
2022/07/14 04:32:14;;;;;;;4.55;2.30;;;;;;;22.54;43.49;99062.19;5031546;28;20042;-61
2022/07/14 04:34:39;;;;;;;4.55;2.53;;;;;;;22.73;42.81;99085.75;5031519;28;20053;-60
2022/07/14 04:37:05;;;;;;;5.63;2.45;;;;;;;22.87;41.93;99074.72;5031134;28;20042;-60
2022/07/14 04:39:31;;;;;;;4.00;2.50;;;;;;;23.01;41.74;99067.22;5031246;28;20037;-63
2022/07/14 04:41:56;;;;;;;2.85;2.58;;;;;;;23.06;41.50;99061.97;5031786;28;20037;-62
2022/07/14 04:44:22;;;;;;;5.47;2.53;;;;;;;23.12;41.83;99060.19;5031909;28;20025;-61
2022/07/14 04:46:48;;;;;;;3.63;2.50;;;;;;;23.07;41.56;99067.19;5046129;28;20029;-61
2022/07/14 04:52:03;;;;;;;3.75;2.78;;;;;;;23.02;41.05;99052.53;5028834;28;20584;-62
2022/07/14 04:54:30;;;;;;;2.90;2.20;;;;;;;23.07;41.81;99050.81;5031201;28;20029;-61
2022/07/14 04:56:55;;;;;;;11.93;2.60;;;;;;;23.37;41.97;99049.28;5030818;28;20594;-61
2022/07/14 04:59:21;;;;;;;5.65;2.45;;;;;;;23.87;40.43;99042.78;5031056;28;20033;-60
2022/07/14 05:01:46;;;;;;;5.75;3.15;;;;;;;24.52;38.38;99033.03;5031233;28;20127;-59
2022/07/14 05:04:12;;;;;;;5.57;2.67;;;;;;;25.28;37.16;99031.50;5030817;28;20381;-60
2022/07/14 05:06:37;;;;;;;8.18;2.40;;;;;;;26.08;34.63;99030.97;5030497;28;20029;-61
2022/07/14 05:09:03;;;;;;;5.22;2.65;;;;;;;26.66;33.14;99022.63;5030934;28;20084;-61
2022/07/14 05:11:29;;;;;;;5.32;2.70;;;;;;;27.46;31.79;99029.84;5030929;28;20072;-62
2022/07/14 05:13:54;;;;;;;5.05;2.50;;;;;;;28.79;30.31;99017.75;5029357;28;20041;-62
2022/07/14 05:16:20;;;;;;;6.25;2.40;;;;;;;29.91;28.15;99018.63;5030789;28;20433;-63
2022/07/14 05:18:46;;;;;;;5.53;2.17;;;;;;;30.74;26.69;99018.75;5029987;28;20523;-61
2022/07/14 05:21:12;;;;;;;7.85;2.78;;;;;;;31.39;25.84;99016.41;5029319;28;20036;-61
2022/07/14 05:23:38;;;;;;;7.65;2.88;;;;;;;31.82;24.17;99015.97;5030767;28;20037;-61
2022/07/14 05:26:09;;;;;;;3.45;2.33;;;;;;;32.50;23.52;99020.78;5030262;28;20382;-60
2022/07/14 05:28:35;;;;;;;4.53;2.55;;;;;;;32.63;23.37;99015.69;5029899;28;20087;-61
2022/07/14 05:31:00;;;;;;;4.50;2.25;;;;;;;32.71;22.30;99015.06;5036732;28;20433;-61
2022/07/14 05:33:26;;;;;;;3.38;2.53;;;;;;;32.30;23.02;99018.97;5034743;28;20036;-60
2022/07/14 05:35:51;;;;;;;4.75;2.20;;;;;;;31.87;23.54;99018.69;5036834;28;20045;-61
2022/07/14 05:38:17;;;;;;;4.85;2.47;;;;;;;31.50;24.54;99006.97;5037186;28;20470;-62
2022/07/14 05:40:42;;;;;;;3.60;2.65;;;;;;;31.47;24.32;99007.53;5036660;28;20079;-61
2022/07/14 05:43:08;;;;;;;5.05;2.55;;;;;;;30.76;24.35;98985.31;5037019;28;20078;-62
2022/07/14 05:45:33;;;;;;;3.75;1.90;;;;;;;30.01;24.57;98994.91;5037169;28;20033;-60
2022/07/14 05:47:59;;;;;;;4.63;2.33;;;;;;;29.12;26.40;99003.91;5036556;28;20028;-64
2022/07/14 05:50:25;;;;;;;5.95;2.45;;;;;;;28.45;27.44;99001.50;5036996;28;20034;-60
2022/07/14 05:52:51;;;;;;;3.53;2.42;;;;;;;28.13;28.17;99007.81;5036911;28;20073;-62
2022/07/14 05:55:16;;;;;;;3.63;2.42;;;;;;;27.78;29.33;98999.75;5036450;28;20488;-61
2022/07/14 05:57:42;;;;;;;7.45;3.00;;;;;;;27.51;29.39;98991.47;5036683;28;20057;-61
2022/07/14 06:00:08;;;;;;;4.80;2.78;;;;;;;27.37;30.35;98993.75;5036510;28;20035;-62
2022/07/14 06:02:34;;;;;;;6.95;3.10;;;;;;;27.30;30.53;98988.44;5035993;28;20452;-59
2022/07/14 06:04:59;;;;;;;4.55;3.15;;;;;;;27.08;30.90;98983.75;5036721;28;20109;-60
2022/07/14 06:07:25;;;;;;;5.50;3.10;;;;;;;27.01;31.71;98982.28;5036960;28;20032;-61
2022/07/14 06:09:50;;;;;;;7.25;3.03;;;;;;;26.90;31.42;98984.03;5036307;28;20037;-62
2022/07/14 06:12:16;;;;;;;9.30;3.28;;;;;;;26.55;32.49;98980.47;5036474;28;20077;-60
2022/07/14 06:14:43;;;;;;;6.20;3.85;;;;;;;26.23;32.51;98989.28;5036692;28;20026;-61
2022/07/14 06:17:09;;;;;;;8.70;3.80;;;;;;;26.15;33.00;98987.75;5037003;28;20021;-61
2022/07/14 06:19:35;;;;;;;5.15;2.65;;;;;;;26.23;30.77;98983.78;5036712;28;20037;-62
2022/07/14 06:22:05;;;;;;;4.80;2.40;;;;;;;26.48;29.52;98980.63;5034891;28;20036;-63
2022/07/14 06:24:32;;;;;;;4.85;2.47;;;;;;;26.85;28.94;98984.78;5036314;28;20037;-60
2022/07/14 06:26:57;;;;;;;4.90;2.60;;;;;;;27.54;28.51;98979.97;5052388;28;20032;-56
2022/07/14 06:29:23;;;;;;;5.25;2.63;;;;;;;28.04;27.24;98977.19;5036990;28;20037;-57
2022/07/14 06:31:51;;;;;;;7.00;2.20;;;;;;;28.56;26.96;98974.91;5035896;28;20041;-57
2022/07/14 06:34:16;;;;;;;7.57;2.45;;;;;;;29.70;25.70;98972.78;5031302;28;20082;-58
2022/07/14 06:36:42;;;;;;;6.85;2.20;;;;;;;32.39;20.04;98977.69;5034746;28;20107;-54
2022/07/14 06:39:07;;;;;;;3.53;2.08;;;;;;;34.70;18.38;98979.72;5036579;28;20033;-56
2022/07/14 06:41:33;;;;;;;4.28;2.03;;;;;;;34.81;17.97;98968.41;5032605;28;20112;-55
2022/07/14 06:43:58;;;;;;;4.78;2.33;;;;;;;34.82;18.22;98970.06;5032495;28;20033;-60
2022/07/14 06:46:24;;;;;;;5.88;2.10;;;;;;;35.11;18.29;98966.19;5033799;28;20033;-59
2022/07/14 06:48:50;;;;;;;4.32;2.40;;;;;;;34.41;19.16;98972.41;5033112;28;20072;-59
2022/07/14 06:51:15;;;;;;;10.02;2.92;;;;;;;33.55;19.96;98968.72;5032629;28;20489;-59
2022/07/14 06:53:41;;;;;;;4.32;2.63;;;;;;;33.09;20.84;98972.84;5031821;28;20119;-58
2022/07/14 06:56:07;;;;;;;4.63;2.47;;;;;;;33.34;20.38;98968.94;5032959;28;20462;-57
2022/07/14 06:58:33;;;;;;;7.15;2.90;;;;;;;33.70;20.49;98977.94;5028096;28;20037;-61
2022/07/14 07:00:58;;;;;;;4.68;2.70;;;;;;;34.14;19.26;98962.06;5031090;28;20418;-62
2022/07/14 07:03:24;;;;;;;4.95;2.80;;;;;;;35.06;18.25;98965.16;5030405;28;20033;-63
2022/07/14 07:08:33;;;;;;;7.38;3.13;;;;;;;37.58;16.43;98968.78;5032699;28;20072;-62
2022/07/14 07:10:59;;;;;;;6.00;3.28;;;;;;;39.94;14.54;98956.41;5032416;28;20146;-61
2022/07/14 07:13:28;;;;;;;5.38;3.33;;;;;;;42.04;12.94;98978.28;5031998;28;20398;-61
2022/07/14 07:15:54;;;;;;;6.43;3.67;;;;;;;41.24;12.92;98958.19;5012529;28;20030;-62
2022/07/14 07:18:19;;;;;;;4.72;3.08;;;;;;;39.17;14.32;98947.03;5012620;28;20174;-63
2022/07/14 07:20:45;;;;;;;8.07;3.38;;;;;;;36.92;16.74;98948.06;5029168;28;20033;-63
2022/07/14 07:23:10;;;;;;;8.15;3.55;;;;;;;35.21;19.03;98968.78;5031621;28;20144;-62
2022/07/14 07:25:36;;;;;;;5.65;3.08;;;;;;;33.83;20.34;98963.31;5031108;28;20539;-60
2022/07/14 07:28:02;;;;;;;5.53;3.53;;;;;;;32.89;21.05;98968.34;5031689;28;20109;-61
2022/07/14 07:30:28;;;;;;;8.18;3.33;;;;;;;31.99;22.55;98951.91;5031902;28;20402;-60
2022/07/14 07:32:53;;;;;;;9.35;3.95;;;;;;;31.46;23.32;98986.50;5032503;28;20029;-61
2022/07/14 07:35:19;;;;;;;9.38;3.83;;;;;;;30.67;24.62;98996.09;5031852;28;20517;-61
2022/07/14 07:37:46;;;;;;;9.23;3.63;;;;;;;29.82;25.62;98995.41;5032008;28;20038;-62
2022/07/14 07:40:12;;;;;;;5.22;3.25;;;;;;;29.14;26.95;99010.00;5032424;28;20043;-60
2022/07/14 07:42:37;;;;;;;5.78;3.42;;;;;;;28.37;27.65;99013.84;5032079;28;20037;-60
2022/07/14 07:45:03;;;;;;;9.95;3.58;;;;;;;27.63;30.03;99016.91;5031746;28;20123;-60
2022/07/14 07:47:29;;;;;;;7.32;3.88;;;;;;;26.86;34.54;99008.41;5031199;28;20037;-60
2022/07/14 07:49:54;;;;;;;15.18;3.78;;;;;;;26.04;36.78;99014.16;5031279;28;20558;-61
2022/07/14 07:52:21;;;;;;;6.85;3.25;;;;;;;25.40;37.59;99003.28;5031178;28;20064;-61
2022/07/14 07:54:47;;;;;;;4.82;2.80;;;;;;;24.91;37.62;98991.53;5032347;28;20052;-61
2022/07/14 07:57:13;;;;;;;3.53;2.90;;;;;;;24.66;40.87;98980.81;5031689;28;20033;-60
2022/07/14 07:59:39;;;;;;;9.73;3.53;;;;;;;24.42;43.45;98941.66;5031001;28;20037;-61
2022/07/14 08:02:05;;;;;;;8.95;3.50;;;;;;;24.10;45.56;98929.13;5031537;28;20404;-61
2022/07/14 08:04:32;;;;;;;7.00;3.70;;;;;;;23.99;46.08;98938.13;5031842;28;20590;-61
2022/07/14 08:06:57;;;;;;;5.40;3.63;;;;;;;24.07;46.98;98915.91;5031404;28;20044;-62
2022/07/14 08:09:23;;;;;;;6.57;4.15;;;;;;;24.08;46.68;98882.03;5031087;28;20104;-62
2022/07/14 08:11:48;;;;;;;5.55;3.65;;;;;;;24.26;46.68;98902.16;5031955;28;20029;-61
2022/07/14 08:16:58;;;;;;;7.57;3.60;;;;;;;25.80;42.62;98907.34;5031274;28;20037;-60
2022/07/14 08:19:25;;;;;;;8.43;3.65;;;;;;;27.87;37.30;98900.28;5031456;28;20037;-69
2022/07/14 08:21:50;;;;;;;10.38;3.90;;;;;;;29.11;34.89;98878.25;5029785;28;20037;-61
2022/07/14 08:24:18;;;;;;;5.75;3.42;;;;;;;29.73;33.51;98895.00;5026765;28;20086;-61
2022/07/14 08:26:45;;;;;;;9.98;3.63;;;;;;;30.06;32.56;98892.81;5026343;28;20083;-61
2022/07/14 08:29:10;;;;;;;8.93;3.90;;;;;;;30.04;32.48;98895.03;5027839;28;20037;-61
2022/07/14 08:31:36;;;;;;;9.70;4.00;;;;;;;30.03;31.67;98898.91;5030282;28;20095;-62
2022/07/14 08:34:03;;;;;;;6.35;3.72;;;;;;;29.82;31.33;98904.38;5030884;28;20033;-60
2022/07/14 08:36:28;;;;;;;7.50;3.95;;;;;;;29.77;31.40;98871.28;5029998;28;20100;-65
2022/07/14 08:38:54;;;;;;;6.30;3.92;;;;;;;30.04;31.08;98889.50;5028078;28;20029;-62
2022/07/14 08:41:19;;;;;;;7.60;3.53;;;;;;;30.11;30.41;98878.22;5030840;28;20033;-61
2022/07/14 08:43:48;;;;;;;8.23;4.20;;;;;;;30.06;30.09;98887.31;5027656;28;20033;-61
2022/07/14 08:46:15;;;;;;;9.00;4.20;;;;;;;29.52;32.00;98886.69;5030598;28;20485;-61
2022/07/14 08:48:40;;;;;;;8.35;4.00;;;;;;;29.05;31.86;98886.50;5029797;28;20060;-60
2022/07/14 08:51:06;;;;;;;9.55;4.70;;;;;;;28.71;31.03;98880.53;5029893;28;20064;-60
2022/07/14 08:53:33;;;;;;;12.75;5.18;;;;;;;28.25;32.11;98873.66;5030628;28;20045;-60
2022/07/14 08:55:59;;;;;;;7.70;4.68;;;;;;;28.15;33.68;98868.91;5030399;28;20052;-60
2022/07/14 08:58:25;;;;;;;13.18;5.05;;;;;;;28.43;32.62;98872.38;5030319;28;20127;-61
2022/07/14 09:00:51;;;;;;;8.43;4.63;;;;;;;28.81;29.39;98858.56;5030078;28;20061;-61
2022/07/14 09:03:16;;;;;;;6.80;4.05;;;;;;;29.17;28.44;98855.13;5030336;28;20099;-60
2022/07/14 09:05:44;;;;;;;7.75;3.55;;;;;;;29.35;27.53;98846.34;5030042;28;20033;-60
2022/07/14 09:08:11;;;;;;;11.10;3.70;;;;;;;29.22;27.63;98841.38;5029824;28;20385;-62
2022/07/14 09:10:38;;;;;;;6.00;3.63;;;;;;;28.96;27.32;98832.19;5029864;28;20485;-61
2022/07/14 09:13:11;;;;;;;6.05;3.35;;;;;;;29.42;27.56;98840.63;5027945;28;20021;-60
2022/07/14 09:15:46;;;;;;;5.60;2.97;;;;;;;29.56;26.17;98813.34;5030005;28;20044;-61
2022/07/14 09:18:26;;;;;;;6.18;3.40;;;;;;;29.81;26.90;98836.50;5028978;28;20037;-61
2022/07/14 09:20:54;;;;;;;6.72;3.40;;;;;;;29.80;26.83;98837.63;5030602;28;20549;-64
2022/07/14 09:23:46;;;;;;;6.72;3.10;;;;;;;30.07;26.91;98829.09;5030364;28;20064;-62
2022/07/14 09:26:15;;;;;;;8.13;2.97;;;;;;;29.89;26.03;98827.66;5029311;28;20052;-61
2022/07/14 09:28:42;;;;;;;4.68;2.97;;;;;;;29.73;26.29;98815.00;5030403;28;20052;-60
2022/07/14 09:31:26;;;;;;;4.25;3.40;;;;;;;29.91;26.45;98817.22;5029294;28;20041;-62
2022/07/14 09:33:57;;;;;;;7.47;3.35;;;;;;;29.75;26.72;98813.59;5030145;28;20072;-61
2022/07/14 09:36:36;;;;;;;5.93;3.20;;;;;;;30.00;26.44;98800.91;5030437;28;20057;-62
2022/07/14 09:39:05;;;;;;;5.57;3.20;;;;;;;29.84;26.82;98802.03;5027841;28;20040;-62
2022/07/14 09:41:36;;;;;;;8.05;3.83;;;;;;;29.85;27.03;98787.13;5029964;28;20528;-61
2022/07/14 09:44:11;;;;;;;7.45;3.67;;;;;;;30.12;26.70;98794.28;5029998;28;20469;-61
2022/07/14 09:46:56;;;;;;;9.70;4.30;;;;;;;30.12;27.27;98786.81;5028854;28;20477;-61
2022/07/14 09:49:30;;;;;;;5.45;3.85;;;;;;;29.89;27.80;98779.94;5015963;28;20797;-61
2022/07/14 09:51:55;;;;;;;5.65;3.58;;;;;;;29.77;27.31;98766.44;5029770;28;20225;-63
2022/07/14 09:54:41;;;;;;;3.70;3.05;;;;;;;29.72;27.86;98761.75;5011933;28;20517;-63
2022/07/14 09:57:08;;;;;;;6.38;3.42;;;;;;;29.47;27.76;98784.66;5018768;28;20033;-60
2022/07/14 09:59:50;;;;;;;4.70;3.33;;;;;;;29.33;28.32;98781.59;5029972;28;20091;-63
2022/07/14 10:02:22;;;;;;;6.90;3.65;;;;;;;28.68;29.15;98788.25;5010577;28;20042;-62
2022/07/14 10:04:49;;;;;;;8.65;3.40;;;;;;;28.12;29.83;98791.53;5013239;28;20087;-61
2022/07/14 10:07:16;;;;;;;7.30;3.40;;;;;;;27.72;30.25;98790.97;5043825;28;20041;-62
2022/07/14 10:09:52;;;;;;;7.78;3.95;;;;;;;27.46;30.98;98785.22;5030302;28;20126;-60
2022/07/14 10:12:18;;;;;;;9.48;3.80;;;;;;;27.12;31.73;98771.72;5030136;28;20055;-61
2022/07/14 10:14:44;;;;;;;5.72;3.97;;;;;;;27.02;32.07;98798.00;5029059;28;20040;-64
2022/07/14 10:17:10;;;;;;;7.75;3.50;;;;;;;26.94;32.17;98796.53;5033251;28;20033;-61
2022/07/14 10:19:36;;;;;;;5.88;3.50;;;;;;;26.77;31.88;98769.13;5034025;28;20029;-61
2022/07/14 10:22:03;;;;;;;6.03;3.40;;;;;;;27.03;32.05;98774.09;5033134;28;20071;-63
2022/07/14 10:24:29;;;;;;;6.65;3.25;;;;;;;27.37;31.86;98795.88;5031737;28;20110;-61
2022/07/14 10:26:56;;;;;;;3.42;2.92;;;;;;;27.72;31.14;98785.47;5025554;28;20029;-62
2022/07/14 10:29:22;;;;;;;5.72;3.20;;;;;;;28.08;30.37;98783.78;5033267;28;20381;-62
2022/07/14 10:32:05;;;;;;;4.35;3.30;;;;;;;28.36;30.16;98762.53;5033273;28;20056;-60
2022/07/14 10:34:41;;;;;;;5.03;3.30;;;;;;;28.58;29.78;98761.53;5033123;28;20046;-62
2022/07/14 10:37:32;;;;;;;4.95;3.50;;;;;;;29.05;29.23;98775.44;5032609;28;20045;-60
2022/07/14 10:40:22;;;;;;;4.60;3.42;;;;;;;29.10;29.69;98766.38;5032301;28;20042;-61
2022/07/14 10:42:50;;;;;;;7.15;3.67;;;;;;;29.19;29.18;98751.78;5016968;28;20429;-64
2022/07/14 10:45:16;;;;;;;7.38;3.80;;;;;;;29.19;29.44;98754.53;5032986;28;20128;-62
2022/07/14 10:47:46;;;;;;;8.57;3.63;;;;;;;29.14;29.36;98743.53;5033228;28;20116;-66
2022/07/14 10:50:13;;;;;;;6.75;3.45;;;;;;;29.18;29.33;98757.59;5031103;28;20487;-62
2022/07/14 10:52:54;;;;;;;3.80;3.50;;;;;;;29.41;29.42;98763.69;5023614;28;20133;-59
2022/07/14 10:55:23;;;;;;;5.32;3.70;;;;;;;29.32;28.92;98744.09;5023302;28;20045;-63
2022/07/14 10:58:01;;;;;;;4.25;3.35;;;;;;;29.55;28.77;98772.25;5031405;28;20036;-61
2022/07/14 11:00:47;;;;;;;6.32;3.75;;;;;;;29.35;29.25;98769.16;5031825;28;20408;-59
2022/07/14 11:03:28;;;;;;;;;;;;;;;29.46;29.00;98771.97;5032993;28;20051;-61
2022/07/14 11:06:07;;;;;;;7.22;3.50;;;;;;;28.71;29.97;98773.13;5032570;28;19924;-62
2022/07/14 11:08:44;;;;;;;5.65;3.70;;;;;;;28.16;30.95;98765.16;5033003;28;20116;-60
2022/07/14 11:11:21;;;;;;;4.40;3.40;;;;;;;27.89;30.78;98772.41;5030856;28;20033;-60
2022/07/14 11:14:06;;;;;;;4.50;2.85;;;;;;;27.83;29.82;98767.94;5030524;28;20444;-61
2022/07/14 11:16:55;;;;;;;3.95;2.60;;;;;;;27.88;30.13;98773.47;5032930;28;20458;-61
2022/07/14 11:19:21;;;;;;;2.92;2.50;;;;;;;27.96;29.16;98794.19;5047677;28;20049;-60
2022/07/14 11:22:08;;;;;;;5.53;2.45;;;;;;;28.26;29.16;98801.00;5032663;28;20092;-59
2022/07/14 11:24:34;;;;;;;1.92;1.73;;;;;;;27.75;28.62;98736.28;5027351;28;20068;-60
2022/07/14 11:27:22;;;;;;;3.28;2.38;;;;;;;28.42;28.65;98801.91;5029776;28;20480;-60
2022/07/14 11:29:47;;;;;;;2.58;2.33;;;;;;;28.20;28.24;98822.13;5031650;28;20505;-62
2022/07/14 11:32:34;;;;;;;5.88;2.63;;;;;;;28.05;28.87;98825.59;5032466;28;20062;-64
2022/07/14 11:38:15;;;;;;;3.22;2.63;;;;;;;27.39;30.01;98823.06;5029846;28;20036;-61
2022/07/14 11:40:47;;;;;;;;;;;;;;;27.42;30.06;98822.56;5028042;28;20083;-59
2022/07/14 11:43:28;;;;;;;2.78;2.20;;;;;;;26.85;30.96;98821.94;5032086;28;19933;-60
2022/07/14 11:45:58;;;;;;;8.85;2.70;;;;;;;26.51;31.33;98815.44;5032165;28;20548;-59
2022/07/14 11:48:32;;;;;;;3.90;2.63;;;;;;;26.36;32.06;98801.53;5031953;28;20025;-61
2022/07/14 11:51:09;;;;;;;3.85;2.65;;;;;;;26.34;32.46;98792.72;5031653;28;20381;-60